Terminal Aerodrome Forecast
Issued by NWS

Home | Current Version | Previous Version | Text Only | Print | Product List | Glossary On
Versions: 1 2 3 4 5 6 7 8 9 10 11 12 13
000
FTUS42 TJSJ 010535
TAFJMZ
TAF
TJMZ 010535Z 0106/0206 07005KT P6SM FEW030
     FM011530 27010KT P6SM SCT030 BKN050
     FM012330 07005KT P6SM FEW030
      AMD NOT SKED TIL 011500=

USA.gov is the U.S. government's official web portal to all federal, state and local government web resources and services.